createdAt,value
2023-05-03T00:00:57.395Z,25.05
2023-05-03T00:01:57.427Z,25.03
2023-05-03T00:02:57.586Z,25.03
2023-05-03T00:03:57.411Z,25.03
2023-05-03T00:04:57.476Z,25.03
2023-05-03T00:05:57.419Z,25.02
2023-05-03T00:06:57.408Z,25.00
2023-05-03T00:07:57.418Z,25.03
2023-05-03T00:08:57.394Z,25.03
2023-05-03T00:09:57.391Z,25.02
2023-05-03T00:10:57.416Z,25.03
2023-05-03T00:11:57.383Z,25.02
2023-05-03T00:12:57.410Z,25.00
2023-05-03T00:13:57.383Z,25.00
2023-05-03T00:14:57.390Z,25.00
2023-05-03T00:15:57.396Z,24.99
2023-05-03T00:16:57.488Z,25.02
2023-05-03T00:17:57.588Z,25.00
2023-05-03T00:18:57.401Z,24.99
2023-05-03T00:19:57.407Z,24.99
2023-05-03T00:20:57.418Z,24.98
2023-05-03T00:21:57.425Z,25.00
2023-05-03T00:22:57.431Z,24.98
2023-05-03T00:23:57.433Z,24.98
2023-05-03T00:24:57.408Z,24.98
2023-05-03T00:25:57.429Z,24.98
2023-05-03T00:26:57.444Z,24.98
2023-05-03T00:27:57.447Z,24.96
2023-05-03T00:28:57.437Z,24.96
2023-05-03T00:29:57.511Z,24.99
2023-05-03T00:30:57.476Z,24.98
2023-05-03T00:31:57.469Z,24.95
2023-05-03T00:32:57.487Z,24.96
2023-05-03T00:33:57.467Z,24.96
2023-05-03T00:34:57.575Z,24.95
2023-05-03T00:35:57.477Z,24.93
2023-05-03T00:36:57.505Z,24.96
2023-05-03T00:37:57.467Z,24.95
2023-05-03T00:38:57.484Z,24.93
2023-05-03T00:39:57.485Z,24.93
2023-05-03T00:40:57.494Z,24.96
2023-05-03T00:41:57.525Z,24.96
2023-05-03T00:42:57.537Z,24.95
2023-05-03T00:43:57.518Z,24.93
2023-05-03T00:44:57.519Z,24.93
2023-05-03T00:46:12.330Z,24.95
2023-05-03T00:46:57.537Z,24.92
2023-05-03T00:47:57.561Z,24.95
2023-05-03T00:48:57.516Z,24.93
2023-05-03T00:49:57.491Z,24.93
2023-05-03T00:50:57.488Z,24.92
2023-05-03T00:51:57.488Z,24.95
2023-05-03T00:52:57.479Z,24.95
2023-05-03T00:53:57.469Z,24.95
2023-05-03T00:54:57.465Z,24.93
2023-05-03T00:55:57.463Z,24.95
2023-05-03T00:56:57.449Z,24.93
2023-05-03T00:57:57.448Z,24.92
2023-05-03T00:58:57.458Z,24.92
2023-05-03T00:59:57.444Z,24.93
2023-05-03T01:00:57.430Z,24.92
2023-05-03T01:01:57.441Z,24.93
2023-05-03T01:02:57.491Z,24.90
2023-05-03T01:03:57.486Z,24.92
2023-05-03T01:04:57.389Z,24.92
2023-05-03T01:05:57.389Z,24.92
2023-05-03T01:06:57.380Z,24.92
2023-05-03T01:07:57.377Z,24.92
2023-05-03T01:08:57.357Z,24.92
2023-05-03T01:09:57.357Z,24.89
2023-05-03T01:10:57.355Z,24.90
2023-05-03T01:11:57.345Z,24.92
2023-05-03T01:12:57.344Z,24.90
2023-05-03T01:13:57.342Z,24.92
2023-05-03T01:14:57.350Z,24.89
2023-05-03T01:15:57.347Z,24.88
2023-05-03T01:16:57.306Z,24.89
2023-05-03T01:17:57.370Z,24.89
2023-05-03T01:18:57.291Z,24.89
2023-05-03T01:19:57.292Z,24.88
2023-05-03T01:20:57.281Z,24.88
2023-05-03T01:21:57.278Z,24.89
2023-05-03T01:22:57.268Z,24.89
2023-05-03T01:23:57.259Z,24.90
2023-05-03T01:24:57.247Z,24.86
2023-05-03T01:25:58.000Z,24.88
2023-05-03T01:26:57.242Z,24.88
2023-05-03T01:27:57.227Z,24.89
2023-05-03T01:28:57.220Z,24.89
2023-05-03T01:29:57.216Z,24.88
2023-05-03T01:30:57.229Z,24.89
2023-05-03T01:31:57.302Z,24.88
2023-05-03T01:32:57.229Z,24.89
2023-05-03T01:33:57.185Z,24.89
2023-05-03T01:34:57.178Z,24.88
2023-05-03T01:35:57.172Z,24.89
2023-05-03T01:36:57.167Z,24.89
2023-05-03T01:37:57.174Z,24.86
2023-05-03T01:38:57.152Z,24.90
2023-05-03T01:39:57.143Z,24.88
2023-05-03T01:40:57.160Z,24.88
2023-05-03T01:41:57.134Z,24.88
2023-05-03T01:42:57.130Z,24.88
2023-05-03T01:43:57.144Z,24.86
2023-05-03T01:44:57.119Z,24.83
2023-05-03T01:45:57.156Z,24.88
2023-05-03T01:46:57.118Z,24.86
2023-05-03T01:47:57.136Z,24.88
2023-05-03T01:48:57.085Z,24.88
2023-05-03T01:49:57.075Z,24.86
2023-05-03T01:50:57.076Z,24.88
2023-05-03T01:51:57.069Z,24.86
2023-05-03T01:52:57.055Z,24.86
2023-05-03T01:53:57.039Z,24.86
2023-05-03T01:54:57.042Z,24.86
2023-05-03T01:55:57.048Z,24.86
2023-05-03T01:56:57.030Z,24.85
2023-05-03T01:57:57.035Z,24.86
2023-05-03T01:58:57.012Z,24.86
2023-05-03T01:59:57.006Z,24.86
2023-05-03T02:00:57.028Z,24.85
2023-05-03T02:01:56.992Z,24.83
2023-05-03T02:02:57.063Z,24.83
2023-05-03T02:03:57.023Z,24.83
2023-05-03T02:04:56.962Z,24.86
2023-05-03T02:05:56.963Z,24.85
2023-05-03T02:06:56.966Z,24.86
2023-05-03T02:07:56.947Z,24.83
2023-05-03T02:08:56.973Z,24.85
2023-05-03T02:09:56.987Z,24.83
2023-05-03T02:10:57.010Z,24.85
2023-05-03T02:11:57.019Z,24.83
2023-05-03T02:12:57.038Z,24.85
2023-05-03T02:13:57.047Z,24.85
2023-05-03T02:14:57.058Z,24.83
2023-05-03T02:15:57.066Z,24.82
2023-05-03T02:16:57.125Z,24.85
2023-05-03T02:17:57.134Z,24.83
2023-05-03T02:18:57.148Z,24.83
2023-05-03T02:19:57.121Z,24.85
2023-05-03T02:20:57.170Z,24.85
2023-05-03T02:21:57.164Z,24.82
2023-05-03T02:22:57.186Z,24.83
2023-05-03T02:23:57.210Z,24.82
2023-05-03T02:24:57.253Z,24.82
2023-05-03T02:25:57.224Z,24.83
2023-05-03T02:26:57.267Z,24.85
2023-05-03T02:27:57.279Z,24.83
2023-05-03T02:28:57.300Z,24.83
2023-05-03T02:29:57.317Z,24.83
2023-05-03T02:30:57.401Z,24.83
2023-05-03T02:31:57.372Z,24.82
2023-05-03T02:32:57.451Z,24.81
2023-05-03T02:33:57.420Z,24.83
2023-05-03T02:34:57.494Z,24.82
2023-05-03T02:35:57.470Z,24.82
2023-05-03T02:36:57.495Z,24.82
2023-05-03T02:37:57.534Z,24.83
2023-05-03T02:38:57.544Z,24.82
2023-05-03T02:39:57.563Z,24.82
2023-05-03T02:40:57.585Z,24.82
2023-05-03T02:41:57.613Z,24.82
2023-05-03T02:42:57.640Z,24.81
2023-05-03T02:43:57.643Z,24.81
2023-05-03T02:44:57.652Z,24.79
2023-05-03T02:45:57.746Z,24.82
2023-05-03T02:46:57.698Z,24.82
2023-05-03T02:47:57.811Z,24.82
2023-05-03T02:48:57.726Z,24.83
2023-05-03T02:49:57.749Z,24.79
2023-05-03T02:50:57.793Z,24.82
2023-05-03T02:51:57.750Z,24.81
2023-05-03T02:52:57.762Z,24.81
2023-05-03T02:53:57.771Z,24.79
2023-05-03T02:54:57.801Z,24.81
2023-05-03T02:55:57.799Z,24.78
2023-05-03T02:56:57.815Z,24.79
2023-05-03T02:57:57.821Z,24.79
2023-05-03T02:58:57.833Z,24.79
2023-05-03T02:59:57.842Z,24.81
2023-05-03T03:00:57.857Z,24.81
2023-05-03T03:01:57.972Z,24.81
2023-05-03T03:02:57.977Z,24.79
2023-05-03T03:03:57.944Z,24.79
2023-05-03T03:04:57.893Z,24.79
2023-05-03T03:05:57.903Z,24.79
2023-05-03T03:06:57.940Z,24.79
2023-05-03T03:07:57.929Z,24.79
2023-05-03T03:08:57.940Z,24.79
2023-05-03T03:09:57.945Z,24.77
2023-05-03T03:10:57.966Z,24.78
2023-05-03T03:11:57.976Z,24.78
2023-05-03T03:12:57.992Z,24.78
2023-05-03T03:13:58.014Z,24.79
2023-05-03T03:14:58.018Z,24.78
2023-05-03T03:15:58.086Z,24.79
2023-05-03T03:16:58.044Z,24.77
2023-05-03T03:17:58.158Z,24.78
2023-05-03T03:18:58.077Z,24.79
2023-05-03T03:19:58.105Z,24.79
2023-05-03T03:20:58.114Z,24.78
2023-05-03T03:21:58.144Z,24.75
2023-05-03T03:22:58.186Z,24.77
2023-05-03T03:23:58.170Z,24.78
2023-05-03T03:24:58.195Z,24.81
2023-05-03T03:25:58.209Z,24.77
2023-05-03T03:26:58.231Z,24.78
2023-05-03T03:27:58.249Z,24.77
2023-05-03T03:28:58.272Z,24.77
2023-05-03T03:29:58.286Z,24.75
2023-05-03T03:30:58.316Z,24.77
2023-05-03T03:31:58.450Z,24.78
2023-05-03T03:32:58.413Z,24.78
2023-05-03T03:33:58.370Z,24.77
2023-05-03T03:34:58.392Z,24.77
2023-05-03T03:35:58.420Z,24.78
2023-05-03T03:36:58.449Z,24.77
2023-05-03T03:37:58.458Z,24.75
2023-05-03T03:38:58.902Z,24.75
2023-05-03T03:39:58.890Z,24.75
2023-05-03T03:40:58.881Z,24.77
2023-05-03T03:41:58.877Z,24.77
2023-05-03T03:42:58.906Z,24.75
2023-05-03T03:43:58.890Z,24.77
2023-05-03T03:44:58.882Z,24.75
2023-05-03T03:45:58.890Z,24.74
2023-05-03T03:46:58.979Z,24.75
2023-05-03T03:47:58.925Z,24.74
2023-05-03T03:48:58.913Z,24.75
2023-05-03T03:49:58.884Z,24.77
2023-05-03T03:50:58.890Z,24.74
2023-05-03T03:51:58.902Z,24.77
2023-05-03T03:52:58.895Z,24.74
2023-05-03T03:53:58.924Z,24.74
2023-05-03T03:54:58.917Z,24.77
2023-05-03T03:55:58.914Z,24.75
2023-05-03T03:56:58.911Z,24.74
2023-05-03T03:57:58.929Z,24.75
2023-05-03T03:58:58.948Z,24.77
2023-05-03T03:59:58.957Z,24.77
2023-05-03T04:00:58.982Z,24.75
2023-05-03T04:01:59.063Z,24.75
2023-05-03T04:02:59.131Z,24.75
2023-05-03T04:03:59.161Z,24.75
2023-05-03T04:04:59.093Z,24.75
2023-05-03T04:05:59.131Z,24.77
2023-05-03T04:06:59.160Z,24.75
2023-05-03T04:07:59.182Z,24.75
2023-05-03T04:08:59.202Z,24.77
2023-05-03T04:09:59.228Z,24.75
2023-05-03T04:10:59.288Z,24.74
2023-05-03T04:11:59.268Z,24.75
2023-05-03T04:12:59.287Z,24.75
2023-05-03T04:13:59.316Z,24.72
2023-05-03T04:14:59.336Z,24.75
2023-05-03T04:15:59.362Z,24.71
2023-05-03T04:16:59.427Z,24.75
2023-05-03T04:17:59.418Z,24.75
2023-05-03T04:18:59.406Z,24.74
2023-05-03T04:19:59.446Z,24.71
2023-05-03T04:20:59.464Z,24.75
2023-05-03T04:21:59.473Z,24.72
2023-05-03T04:22:59.503Z,24.72
2023-05-03T04:23:59.522Z,24.74
2023-05-03T04:24:59.550Z,24.74
2023-05-03T04:25:59.565Z,24.72
2023-05-03T04:26:59.621Z,24.75
2023-05-03T04:27:59.629Z,24.72
2023-05-03T04:28:59.644Z,24.72
2023-05-03T04:29:59.705Z,24.74
2023-05-03T04:30:59.723Z,24.72
2023-05-03T04:31:59.719Z,24.72
2023-05-03T04:32:59.810Z,24.72
2023-05-03T04:34:00.157Z,24.71
2023-05-03T04:35:00.190Z,24.74
2023-05-03T04:36:00.191Z,24.74
2023-05-03T04:37:00.182Z,24.72
2023-05-03T04:38:00.190Z,24.74
2023-05-03T04:39:00.196Z,24.72
2023-05-03T04:40:00.262Z,24.72
2023-05-03T04:41:00.186Z,24.74
2023-05-03T04:42:00.183Z,24.75
2023-05-03T04:43:00.244Z,24.74
2023-05-03T04:44:00.181Z,24.74
2023-05-03T04:45:00.191Z,24.74
2023-05-03T04:46:00.324Z,24.72
2023-05-03T04:47:00.234Z,24.74
2023-05-03T04:48:00.345Z,24.72
2023-05-03T04:49:00.317Z,24.72
2023-05-03T04:50:00.425Z,24.70
2023-05-03T04:51:00.386Z,24.72
2023-05-03T04:52:00.411Z,24.71
2023-05-03T04:53:00.438Z,24.71
2023-05-03T04:54:00.466Z,24.74
2023-05-03T04:55:00.509Z,24.72
2023-05-03T04:56:00.524Z,24.74
2023-05-03T04:57:00.566Z,24.74
2023-05-03T04:58:00.588Z,24.74
2023-05-03T04:59:00.639Z,24.72
2023-05-03T05:00:00.758Z,24.74
2023-05-03T05:01:00.658Z,24.72
2023-05-03T05:02:00.889Z,24.71
2023-05-03T05:03:00.773Z,24.72
2023-05-03T05:04:00.944Z,24.72
2023-05-03T05:05:00.739Z,24.72
2023-05-03T05:06:00.774Z,24.72
2023-05-03T05:07:00.784Z,24.74
2023-05-03T05:08:00.838Z,24.74
2023-05-03T05:09:00.833Z,24.74
2023-05-03T05:10:01.152Z,24.72
2023-05-03T05:11:00.879Z,24.72
2023-05-03T05:12:00.900Z,24.74
2023-05-03T05:13:00.934Z,24.71
2023-05-03T05:14:00.973Z,24.74
2023-05-03T05:15:01.021Z,24.70
2023-05-03T05:16:01.047Z,24.71
2023-05-03T05:17:01.099Z,24.74
2023-05-03T05:18:01.192Z,24.72
2023-05-03T05:19:01.545Z,24.71
2023-05-03T05:20:01.819Z,24.71
2023-05-03T05:21:01.171Z,24.74
2023-05-03T05:22:01.208Z,24.72
2023-05-03T05:23:01.226Z,24.71
2023-05-03T05:24:01.255Z,24.62
2023-05-03T05:25:01.274Z,24.70
2023-05-03T05:26:01.308Z,24.75
2023-05-03T05:27:01.327Z,24.72
2023-05-03T05:28:01.343Z,24.74
2023-05-03T05:29:01.368Z,24.77
2023-05-03T05:30:01.748Z,24.77
2023-05-03T05:31:01.623Z,24.77
2023-05-03T05:32:01.535Z,24.81
2023-05-03T05:33:01.503Z,24.82
2023-05-03T05:34:01.513Z,24.82
2023-05-03T05:35:01.448Z,24.82
2023-05-03T05:36:01.552Z,24.85
2023-05-03T05:37:01.461Z,24.85
2023-05-03T05:38:01.464Z,24.86
2023-05-03T05:39:01.479Z,24.86
2023-05-03T05:40:01.856Z,24.88
2023-05-03T05:41:01.628Z,24.90
2023-05-03T05:42:01.494Z,24.88
2023-05-03T05:43:01.557Z,24.88
2023-05-03T05:44:01.518Z,24.85
2023-05-03T05:45:01.547Z,24.83
2023-05-03T05:46:01.591Z,24.77
2023-05-03T05:47:02.275Z,24.74
2023-05-03T05:48:01.732Z,24.71
2023-05-03T05:49:01.767Z,24.67
2023-05-03T05:50:02.285Z,24.65
2023-05-03T05:51:01.869Z,24.61
2023-05-03T05:52:02.061Z,24.58
2023-05-03T05:53:01.947Z,24.54
2023-05-03T05:54:01.954Z,24.51
2023-05-03T05:55:01.947Z,24.50
2023-05-03T05:56:01.962Z,24.43
2023-05-03T05:57:02.061Z,24.40
2023-05-03T05:58:02.070Z,24.34
2023-05-03T05:59:02.026Z,24.28
2023-05-03T06:00:02.269Z,24.23
2023-05-03T06:01:02.176Z,24.21
2023-05-03T06:02:02.600Z,24.20
2023-05-03T06:03:02.322Z,24.21
2023-05-03T06:04:02.354Z,24.20
2023-05-03T06:05:02.413Z,24.19
2023-05-03T06:06:05.596Z,24.23
2023-05-03T06:07:02.566Z,24.26
2023-05-03T06:08:02.382Z,24.27
2023-05-03T06:09:09.781Z,24.31
2023-05-03T06:10:02.787Z,24.34
2023-05-03T06:11:02.364Z,24.37
2023-05-03T06:12:02.345Z,24.41
2023-05-03T06:13:02.342Z,24.44
2023-05-03T06:14:02.570Z,24.47
2023-05-03T06:15:03.316Z,24.53
2023-05-03T06:16:02.427Z,24.51
2023-05-03T06:17:02.518Z,24.55
2023-05-03T06:18:02.583Z,24.58
2023-05-03T06:19:03.093Z,24.62
2023-05-03T06:20:03.102Z,24.64
2023-05-03T07:20:18.294Z,25.45
2023-05-03T07:21:18.277Z,25.48
2023-05-03T11:31:08.113Z,26.74
2023-05-03T11:32:09.051Z,26.75
2023-05-03T11:33:09.215Z,26.81
2023-05-03T11:34:08.974Z,26.85
2023-05-03T11:35:08.958Z,26.83
2023-05-03T11:36:08.967Z,26.88
2023-05-03T11:37:08.953Z,26.89
2023-05-03T11:38:08.934Z,26.89
2023-05-03T11:39:08.935Z,26.90
2023-05-03T11:40:08.920Z,26.92
2023-05-03T11:41:08.916Z,26.93
2023-05-03T11:42:08.901Z,26.92
2023-05-03T11:43:08.916Z,26.96
2023-05-03T11:44:17.059Z,26.95
2023-05-03T11:45:09.144Z,26.95
2023-05-03T11:46:09.033Z,26.96
2023-05-03T11:47:09.068Z,26.93
2023-05-03T11:48:08.892Z,26.96
2023-05-03T11:49:08.879Z,26.95
2023-05-03T11:50:08.864Z,26.95
2023-05-03T11:51:08.859Z,26.96
2023-05-03T11:52:08.888Z,26.95
2023-05-03T11:53:08.845Z,26.96
2023-05-03T11:54:21.050Z,26.98
2023-05-03T11:55:08.856Z,27.00
2023-05-03T11:56:08.836Z,26.98
2023-05-03T11:57:08.830Z,26.98
2023-05-03T11:58:08.837Z,27.00
2023-05-03T11:59:08.850Z,27.00
2023-05-03T12:00:08.809Z,27.02
2023-05-03T12:01:08.794Z,27.00
2023-05-03T12:02:08.840Z,27.00
2023-05-03T12:03:09.328Z,27.03
2023-05-03T12:04:08.973Z,27.02
2023-05-03T12:05:09.984Z,27.00
2023-05-03T12:06:10.155Z,26.96
2023-05-03T12:07:10.015Z,27.00
2023-05-03T12:08:10.334Z,26.98
2023-05-03T12:09:10.068Z,26.92
2023-05-03T12:10:15.928Z,26.92
2023-05-03T12:12:10.355Z,26.90
2023-05-03T12:13:09.654Z,26.89
2023-05-03T12:14:10.601Z,26.90
2023-05-03T12:15:10.784Z,26.93
2023-05-03T12:16:13.524Z,26.96
2023-05-03T12:17:11.281Z,26.96
2023-05-03T12:18:09.715Z,26.99
2023-05-03T12:19:09.414Z,27.03
2023-05-03T12:20:42.021Z,27.06
2023-05-03T12:22:21.777Z,27.07
2023-05-03T12:23:10.131Z,27.11
2023-05-03T12:24:10.791Z,27.16
2023-05-03T12:25:09.865Z,27.17
2023-05-03T12:26:10.083Z,27.20
2023-05-03T12:27:09.214Z,27.20
2023-05-03T12:29:08.193Z,27.24
2023-05-03T12:30:09.710Z,27.26
2023-05-03T12:31:09.243Z,27.32
2023-05-03T12:32:11.795Z,27.29
2023-05-03T12:33:10.305Z,27.32
2023-05-03T12:35:10.536Z,27.33
2023-05-03T12:36:09.938Z,27.37
2023-05-03T12:37:11.795Z,27.37
2023-05-03T12:38:10.391Z,27.38
2023-05-03T12:39:10.461Z,27.41
2023-05-03T12:40:31.600Z,27.41
2023-05-03T12:41:09.466Z,27.43
2023-05-03T12:42:09.918Z,27.44
2023-05-03T12:43:09.368Z,27.47
2023-05-03T12:44:10.814Z,27.48
2023-05-03T12:45:12.501Z,27.47
2023-05-03T12:46:32.383Z,27.50
2023-05-03T12:47:10.033Z,27.48
2023-05-03T12:48:09.627Z,27.51
2023-05-03T12:49:13.041Z,27.52
2023-05-03T12:50:12.255Z,27.54
2023-05-03T12:53:09.723Z,27.54
2023-05-03T12:54:10.514Z,27.57
2023-05-03T12:55:11.346Z,27.57
2023-05-03T12:56:13.253Z,27.58
2023-05-03T12:57:14.630Z,27.58
2023-05-03T13:03:18.275Z,27.50
2023-05-03T13:03:20.623Z,27.45
2023-05-03T13:04:32.815Z,27.45
2023-05-03T13:05:13.110Z,27.43
2023-05-03T13:06:13.105Z,27.38
2023-05-03T13:07:13.633Z,27.36
2023-05-03T13:08:10.569Z,27.33
2023-05-03T13:09:09.489Z,27.32
2023-05-03T13:11:08.286Z,27.27
2023-05-03T13:12:09.358Z,27.26
2023-05-03T13:13:09.211Z,27.20
2023-05-03T13:14:09.212Z,27.22
2023-05-03T13:15:09.204Z,27.20
2023-05-03T13:16:09.286Z,27.17
2023-05-03T13:17:09.181Z,27.16
2023-05-03T13:18:09.221Z,27.13
2023-05-03T13:19:09.174Z,27.13
2023-05-03T13:20:09.204Z,27.13
2023-05-03T13:21:09.165Z,27.10
2023-05-03T13:22:09.163Z,27.07
2023-05-03T13:23:09.157Z,27.07
2023-05-03T13:24:09.130Z,27.06
2023-05-03T13:25:09.125Z,27.05
2023-05-03T13:26:09.115Z,27.02
2023-05-03T13:27:09.137Z,27.02
2023-05-03T13:28:09.122Z,27.02
2023-05-03T13:29:09.100Z,26.99
2023-05-03T13:30:09.093Z,26.98
2023-05-03T13:31:09.075Z,26.98
2023-05-03T13:32:09.170Z,26.96
2023-05-03T13:33:09.105Z,26.96
2023-05-03T13:34:09.107Z,26.95
2023-05-03T13:35:09.062Z,26.92
2023-05-03T13:36:09.042Z,26.93
2023-05-03T13:37:09.044Z,26.92
2023-05-03T13:38:09.030Z,26.93
2023-05-03T13:39:09.056Z,26.92
2023-05-03T13:40:09.067Z,26.95
2023-05-03T13:41:09.012Z,26.93
2023-05-03T13:42:09.013Z,26.93
2023-05-03T13:43:08.994Z,26.92
2023-05-03T13:44:09.013Z,26.92
2023-05-03T13:45:08.993Z,26.92
2023-05-03T13:46:08.987Z,26.90
2023-05-03T13:47:08.973Z,26.90
2023-05-03T13:48:17.926Z,26.93
2023-05-03T13:49:09.003Z,26.92
2023-05-03T13:50:08.993Z,26.90
2023-05-03T13:51:08.938Z,26.90
2023-05-03T13:52:08.966Z,26.92
2023-05-03T13:53:08.933Z,26.90
2023-05-03T13:54:08.925Z,26.90
2023-05-03T13:55:08.953Z,26.90
2023-05-03T13:56:08.919Z,26.90
2023-05-03T13:57:08.905Z,26.89
2023-05-03T13:58:08.914Z,26.89
2023-05-03T13:59:09.263Z,26.89
2023-05-03T14:00:09.071Z,26.92
2023-05-03T14:01:08.976Z,26.89
2023-05-03T14:02:08.886Z,26.90
2023-05-03T14:03:09.068Z,26.88
2023-05-03T14:04:08.921Z,26.88
2023-05-03T14:05:08.912Z,26.88
2023-05-03T14:06:09.245Z,26.86
2023-05-03T14:07:08.854Z,26.88
2023-05-03T14:08:08.818Z,26.86
2023-05-03T14:09:08.911Z,26.86
2023-05-03T14:10:09.289Z,26.88
2023-05-03T14:11:08.864Z,26.88
2023-05-03T14:12:08.800Z,26.86
2023-05-03T14:13:08.836Z,26.88
2023-05-03T14:14:08.774Z,26.88
2023-05-03T14:15:08.778Z,26.85
2023-05-03T14:16:08.829Z,26.85
2023-05-03T14:17:08.897Z,26.85
2023-05-03T14:18:08.869Z,26.83
2023-05-03T14:19:08.751Z,26.83
2023-05-03T14:20:08.890Z,26.85
2023-05-03T14:21:08.734Z,26.83
2023-05-03T14:22:08.727Z,26.83
2023-05-03T14:23:08.753Z,26.85
2023-05-03T14:24:08.726Z,26.83
2023-05-03T14:25:08.710Z,26.82
2023-05-03T14:26:08.704Z,26.85
2023-05-03T14:27:08.720Z,26.86
2023-05-03T14:28:08.694Z,26.83
2023-05-03T14:29:08.691Z,26.83
2023-05-03T14:30:08.691Z,26.82
2023-05-03T14:31:08.701Z,26.79
2023-05-03T14:32:08.668Z,26.82
2023-05-03T14:33:08.717Z,26.81
2023-05-03T14:34:08.671Z,26.82
2023-05-03T14:35:08.671Z,26.79
2023-05-03T14:36:08.666Z,26.82
2023-05-03T14:37:08.684Z,26.78
2023-05-03T14:38:08.631Z,26.82
2023-05-03T14:39:08.620Z,26.78
2023-05-03T14:40:08.811Z,26.79
2023-05-03T14:41:08.612Z,26.79
2023-05-03T14:42:08.603Z,26.78
2023-05-03T14:43:08.622Z,26.78
2023-05-03T14:44:08.604Z,26.77
2023-05-03T14:45:10.885Z,26.78
2023-05-03T14:46:08.751Z,26.77
2023-05-03T14:47:08.611Z,26.75
2023-05-03T14:48:08.632Z,26.75
2023-05-03T14:49:08.550Z,26.75
2023-05-03T14:50:08.570Z,26.77
2023-05-03T14:51:08.533Z,26.72
2023-05-03T14:52:08.517Z,26.74
2023-05-03T14:53:08.512Z,26.71
2023-05-03T14:54:08.516Z,26.72
2023-05-03T14:55:08.511Z,26.68
2023-05-03T14:56:08.505Z,26.68
2023-05-03T14:57:08.520Z,26.70
2023-05-03T14:58:08.480Z,26.68
2023-05-03T14:59:08.517Z,26.67
2023-05-03T15:00:08.607Z,26.68
2023-05-03T15:01:08.544Z,26.65
2023-05-03T15:02:08.497Z,26.65
2023-05-03T15:03:08.638Z,26.65
2023-05-03T15:04:08.451Z,26.67
2023-05-03T15:05:08.431Z,26.65
2023-05-03T15:06:08.430Z,26.65
2023-05-03T15:07:08.422Z,26.65
2023-05-03T15:08:08.415Z,26.61
2023-05-03T15:09:08.448Z,26.64
2023-05-03T15:10:08.600Z,26.65
2023-05-03T15:11:08.397Z,26.62
2023-05-03T15:12:08.388Z,26.62
2023-05-03T15:13:08.552Z,26.61
2023-05-03T15:14:08.456Z,26.62
2023-05-03T15:15:08.457Z,26.59
2023-05-03T15:16:08.441Z,26.62
2023-05-03T15:17:08.556Z,26.61
2023-05-03T15:18:08.652Z,26.61
2023-05-03T15:19:08.529Z,26.62
2023-05-03T15:20:08.533Z,26.61
2023-05-03T15:21:08.790Z,26.59
2023-05-03T15:22:08.584Z,26.62
2023-05-03T15:23:08.617Z,26.62
2023-05-03T15:24:08.638Z,26.61
2023-05-03T15:25:08.662Z,26.61
2023-05-03T15:26:08.696Z,26.64
2023-05-03T15:27:08.730Z,26.61
2023-05-03T15:28:08.778Z,26.62
2023-05-03T15:29:08.839Z,26.61
2023-05-03T15:30:08.815Z,26.62
2023-05-03T15:31:08.911Z,26.62
2023-05-03T15:32:08.878Z,26.64
2023-05-03T15:33:08.993Z,26.61
2023-05-03T15:34:08.955Z,26.64
2023-05-03T15:35:09.001Z,26.64
2023-05-03T15:36:08.995Z,26.65
2023-05-03T15:37:09.012Z,26.67
2023-05-03T15:38:09.034Z,26.67
2023-05-03T15:39:09.056Z,26.65
2023-05-03T15:40:09.081Z,26.65
2023-05-03T15:41:09.092Z,26.65
2023-05-03T15:42:09.098Z,26.70
2023-05-03T15:43:09.120Z,26.68
2023-05-03T15:44:09.142Z,26.67
2023-05-03T15:45:09.196Z,26.67
2023-05-03T15:46:09.224Z,26.68
2023-05-03T15:47:09.245Z,26.70
2023-05-03T15:48:09.275Z,26.71
2023-05-03T15:49:09.245Z,26.71
2023-05-03T15:50:09.429Z,26.71
2023-05-03T15:51:09.280Z,26.70
2023-05-03T15:52:09.310Z,26.74
2023-05-03T15:53:09.328Z,26.74
2023-05-03T15:54:09.354Z,26.70
2023-05-03T15:55:09.433Z,26.70
2023-05-03T15:56:09.389Z,26.70
2023-05-03T15:57:09.405Z,26.70
2023-05-03T15:58:09.414Z,26.72
2023-05-03T15:59:09.427Z,26.72
2023-05-03T16:00:09.454Z,26.75
2023-05-03T16:01:09.594Z,26.72
2023-05-03T16:02:09.601Z,26.72
2023-05-03T16:03:09.577Z,26.70
2023-05-03T16:04:09.469Z,26.71
2023-05-03T16:05:09.562Z,26.72
2023-05-03T16:06:09.507Z,26.72
2023-05-03T16:07:09.496Z,26.71
2023-05-03T16:08:09.519Z,26.72
2023-05-03T16:09:09.543Z,26.74
2023-05-03T16:10:09.520Z,26.75
2023-05-03T16:11:09.572Z,26.77
2023-05-03T16:12:09.538Z,26.77
2023-05-03T16:13:09.677Z,26.77
2023-05-03T16:14:09.556Z,26.77
2023-05-03T16:15:09.525Z,26.77
2023-05-03T16:16:09.549Z,26.77
2023-05-03T16:17:09.529Z,26.74
2023-05-03T16:18:09.650Z,26.75
2023-05-03T16:19:09.604Z,26.77
2023-05-03T16:20:09.561Z,26.79
2023-05-03T16:21:09.557Z,26.78
2023-05-03T16:22:09.546Z,26.78
2023-05-03T16:23:09.814Z,26.82
2023-05-03T16:24:09.589Z,26.82
2023-05-03T16:25:09.550Z,26.83
2023-05-03T16:26:09.555Z,26.82
2023-05-03T16:27:09.546Z,26.85
2023-05-03T16:28:09.558Z,26.88
2023-05-03T16:29:09.566Z,26.86
2023-05-03T16:30:09.535Z,26.90
2023-05-03T16:31:09.621Z,26.92
2023-05-03T16:32:09.836Z,26.95
2023-05-03T16:33:09.651Z,26.96
2023-05-03T16:34:09.684Z,26.96
2023-05-03T16:35:09.781Z,26.96
2023-05-03T16:36:09.709Z,27.00
2023-05-03T16:37:09.777Z,27.02
2023-05-03T16:38:09.829Z,27.02
2023-05-03T16:39:09.888Z,27.03
2023-05-03T16:40:10.362Z,27.02
2023-05-03T16:41:10.358Z,27.03
2023-05-03T16:42:10.345Z,26.99
2023-05-03T16:43:10.330Z,27.00
2023-05-03T16:44:10.418Z,26.99
2023-05-03T16:45:10.349Z,26.98
2023-05-03T16:46:10.365Z,26.96
2023-05-03T16:47:10.333Z,26.98
2023-05-03T16:48:10.603Z,26.95
2023-05-03T16:49:10.397Z,26.98
2023-05-03T16:50:10.408Z,26.95
2023-05-03T16:51:10.555Z,26.93
2023-05-03T16:52:10.467Z,26.92
2023-05-03T16:53:10.462Z,26.95
2023-05-03T16:54:10.486Z,26.89
2023-05-03T16:55:10.452Z,26.89
2023-05-03T16:56:10.449Z,26.85
2023-05-03T16:57:10.441Z,26.88
2023-05-03T16:58:10.439Z,26.85
2023-05-03T16:59:10.474Z,26.85
2023-05-03T17:00:10.749Z,26.85
2023-05-03T17:01:10.474Z,26.85
2023-05-03T17:02:10.535Z,26.82
2023-05-03T17:03:10.496Z,26.81
2023-05-03T17:04:10.439Z,26.82
2023-05-03T17:05:10.527Z,26.81
2023-05-03T17:06:10.508Z,26.77
2023-05-03T17:07:10.490Z,26.79
2023-05-03T17:08:10.460Z,26.77
2023-05-03T17:09:10.472Z,26.74
2023-05-03T17:10:10.491Z,26.75
2023-05-03T17:11:10.479Z,26.74
2023-05-03T17:12:10.482Z,26.72
2023-05-03T17:13:10.535Z,26.72
2023-05-03T17:14:10.508Z,26.71
2023-05-03T17:15:10.545Z,26.70
2023-05-03T17:16:10.577Z,26.70
2023-05-03T17:17:10.602Z,26.68
2023-05-03T17:18:10.621Z,26.70
2023-05-03T17:19:10.586Z,26.68
2023-05-03T17:20:10.615Z,26.67
2023-05-03T17:21:10.871Z,26.62
2023-05-03T17:22:10.672Z,26.64
2023-05-03T17:23:10.721Z,26.62
2023-05-03T17:24:10.730Z,26.67
2023-05-03T17:25:10.750Z,26.61
2023-05-03T17:26:10.794Z,26.62
2023-05-03T17:27:10.823Z,26.62
2023-05-03T17:28:10.847Z,26.61
2023-05-03T17:29:10.876Z,26.59
2023-05-03T17:30:10.919Z,26.56
2023-05-03T17:31:11.341Z,26.58
2023-05-03T17:32:11.357Z,26.58
2023-05-03T17:33:11.366Z,26.59
2023-05-03T17:34:11.367Z,26.55
2023-05-03T17:35:11.407Z,26.59
2023-05-03T17:36:11.357Z,26.54
2023-05-03T17:37:11.365Z,26.55
2023-05-03T17:38:11.357Z,26.55
2023-05-03T17:39:11.389Z,26.56
2023-05-03T17:40:11.365Z,26.51
2023-05-03T17:41:11.442Z,26.54
2023-05-03T17:42:11.365Z,26.52
2023-05-03T17:43:11.366Z,26.52
2023-05-03T17:44:11.359Z,26.50
2023-05-03T17:45:11.427Z,26.51
2023-05-03T17:46:11.670Z,26.48
2023-05-03T17:47:11.489Z,26.48
2023-05-03T17:48:11.555Z,26.48
2023-05-03T17:49:11.550Z,26.47
2023-05-03T17:50:12.410Z,26.48
2023-05-03T17:51:11.594Z,26.47
2023-05-03T17:52:11.580Z,26.47
2023-05-03T17:53:11.577Z,26.44
2023-05-03T17:54:11.568Z,26.45
2023-05-03T17:55:11.596Z,26.44
2023-05-03T17:56:11.560Z,26.43
2023-05-03T17:57:11.549Z,26.43
2023-05-03T17:58:11.559Z,26.43
2023-05-03T17:59:11.555Z,26.43
2023-05-03T18:00:11.563Z,26.41
2023-05-03T18:01:11.557Z,26.43
2023-05-03T18:02:11.623Z,26.41
2023-05-03T18:03:11.559Z,26.41
2023-05-03T18:04:11.502Z,26.40
2023-05-03T18:05:11.495Z,26.40
2023-05-03T18:06:11.491Z,26.37
2023-05-03T18:07:11.494Z,26.36
2023-05-03T18:08:11.477Z,26.37
2023-05-03T18:09:11.469Z,26.36
2023-05-03T18:10:11.460Z,26.36
2023-05-03T18:11:11.535Z,26.36
2023-05-03T18:12:11.454Z,26.33